createdAt,value
2023-05-24T00:02:17.716Z,3.07
2023-05-24T00:04:45.638Z,2.03
2023-05-24T00:07:12.588Z,2.60
2023-05-24T00:09:39.527Z,3.63
2023-05-24T00:12:06.626Z,4.10
2023-05-24T00:14:33.620Z,2.90
2023-05-24T00:17:00.498Z,4.53
2023-05-24T00:19:27.552Z,2.70
2023-05-24T00:21:54.383Z,2.03
2023-05-24T00:24:21.242Z,2.97
2023-05-24T00:26:48.607Z,2.40
2023-05-24T00:29:15.411Z,2.63
2023-05-24T00:31:42.422Z,2.90
2023-05-24T00:34:09.290Z,3.00
2023-05-24T00:36:38.184Z,1.83
2023-05-24T00:39:05.293Z,2.20
2023-05-24T00:41:32.194Z,2.53
2023-05-24T00:43:59.093Z,2.47
2023-05-24T00:46:29.394Z,2.77
2023-05-24T00:48:57.032Z,2.03
2023-05-24T00:51:26.528Z,2.47
2023-05-24T00:53:53.647Z,2.77
2023-05-24T00:56:21.068Z,2.30
2023-05-24T00:58:50.404Z,2.67
2023-05-24T01:01:17.339Z,2.57
2023-05-24T01:03:44.433Z,2.77
2023-05-24T01:06:13.734Z,1.83
2023-05-24T01:08:40.647Z,2.53
2023-05-24T01:11:33.313Z,2.70
2023-05-24T01:14:10.062Z,2.30
2023-05-24T01:16:54.350Z,2.03
2023-05-24T01:19:48.836Z,2.07
2023-05-24T01:22:34.615Z,1.90
2023-05-24T01:25:26.921Z,1.30
2023-05-24T01:27:54.778Z,2.30
2023-05-24T01:30:22.038Z,2.00
2023-05-24T01:32:49.170Z,2.67
2023-05-24T01:35:15.969Z,3.00
2023-05-24T01:37:42.783Z,2.10
2023-05-24T01:40:10.455Z,2.80
2023-05-24T01:42:57.386Z,2.13
2023-05-24T01:45:34.377Z,2.20
2023-05-24T01:48:24.782Z,2.33
2023-05-24T01:51:05.658Z,1.93
2023-05-24T01:53:40.645Z,1.90
2023-05-24T01:56:08.807Z,3.20
2023-05-24T01:58:38.441Z,2.23
2023-05-24T02:01:05.635Z,2.10
2023-05-24T02:03:32.630Z,2.43
2023-05-24T02:05:59.547Z,2.30
2023-05-24T02:08:26.477Z,1.73
2023-05-24T02:10:53.381Z,2.20
2023-05-24T02:13:20.388Z,2.00
2023-05-24T02:15:47.929Z,2.63
2023-05-24T02:18:14.935Z,2.40
2023-05-24T02:20:42.121Z,2.70
2023-05-24T02:23:09.098Z,2.47
2023-05-24T02:25:35.990Z,2.17
2023-05-24T02:28:02.908Z,1.83
2023-05-24T02:30:29.743Z,2.13
2023-05-24T02:32:57.372Z,3.57
2023-05-24T02:35:24.232Z,2.20
2023-05-24T02:37:51.241Z,2.47
2023-05-24T02:40:18.113Z,2.47
2023-05-24T02:42:45.050Z,1.60
2023-05-24T02:45:11.847Z,2.50
2023-05-24T02:47:38.738Z,2.40
2023-05-24T02:50:06.222Z,3.30
2023-05-24T02:52:33.149Z,4.37
2023-05-24T02:54:59.969Z,2.90
2023-05-24T02:57:28.761Z,2.70
2023-05-24T02:59:56.094Z,3.03
2023-05-24T03:02:23.068Z,3.67
2023-05-24T03:04:49.908Z,2.20
2023-05-24T03:07:17.302Z,2.80
2023-05-24T03:09:44.149Z,2.17
2023-05-24T03:12:11.182Z,2.77
2023-05-24T03:14:38.188Z,2.57
2023-05-24T03:17:05.119Z,3.07
2023-05-24T03:19:31.941Z,2.80
2023-05-24T03:21:58.732Z,3.33
2023-05-24T03:24:26.123Z,2.50
2023-05-24T03:26:52.857Z,2.60
2023-05-24T03:29:19.752Z,2.10
2023-05-24T03:31:46.581Z,2.17
2023-05-24T03:34:13.502Z,2.77
2023-05-24T03:36:40.457Z,2.83
2023-05-24T03:39:07.782Z,2.60
2023-05-24T03:41:34.634Z,2.90
2023-05-24T03:44:01.453Z,2.23
2023-05-24T03:46:28.345Z,2.67
2023-05-24T03:48:55.271Z,2.30
2023-05-24T03:51:24.432Z,2.40
2023-05-24T03:53:51.215Z,3.07
2023-05-24T03:56:18.045Z,2.23
2023-05-24T03:58:44.904Z,1.93
2023-05-24T04:01:21.884Z,2.37
2023-05-24T04:03:57.412Z,2.93
2023-05-24T04:06:29.241Z,2.87
2023-05-24T04:08:57.358Z,2.43
2023-05-24T04:11:24.297Z,2.90
2023-05-24T04:13:52.392Z,2.40
2023-05-24T04:16:19.320Z,2.30
2023-05-24T04:18:46.732Z,3.10
2023-05-24T04:21:13.640Z,2.27
2023-05-24T04:23:40.588Z,3.13
2023-05-24T04:26:07.717Z,3.17
2023-05-24T04:28:34.535Z,3.27
2023-05-24T04:31:02.057Z,4.20
2023-05-24T04:33:28.985Z,2.30
2023-05-24T04:35:55.841Z,2.67
2023-05-24T04:38:24.291Z,4.40
2023-05-24T04:40:51.100Z,2.30
2023-05-24T04:43:18.232Z,3.23
2023-05-24T04:45:44.987Z,2.80
2023-05-24T04:48:11.958Z,2.77
2023-05-24T04:50:39.117Z,2.80
2023-05-24T04:53:05.960Z,2.30
2023-05-24T04:55:32.844Z,2.40
2023-05-24T04:57:59.687Z,2.40
2023-05-24T05:00:26.510Z,2.50
2023-05-24T05:02:53.489Z,2.23
2023-05-24T05:05:21.261Z,3.13
2023-05-24T05:07:48.123Z,3.07
2023-05-24T05:10:14.946Z,3.03
2023-05-24T05:12:41.782Z,2.20
2023-05-24T05:15:09.262Z,3.13
2023-05-24T05:17:36.286Z,3.67
2023-05-24T05:20:04.287Z,4.37
2023-05-24T05:22:31.422Z,3.70
2023-05-24T05:24:58.400Z,2.60
2023-05-24T05:27:25.232Z,6.00
2023-05-24T05:29:52.071Z,5.70
2023-05-24T05:32:18.956Z,3.37
2023-05-24T05:34:45.779Z,3.00
2023-05-24T05:37:12.788Z,3.40
2023-05-24T05:39:39.577Z,3.33
2023-05-24T05:42:06.801Z,3.90
2023-05-24T05:44:33.724Z,3.20
2023-05-24T05:47:00.628Z,4.37
2023-05-24T05:49:27.465Z,3.53
2023-05-24T05:51:54.763Z,3.40
2023-05-24T05:54:21.620Z,3.63
2023-05-24T05:56:48.516Z,3.80
2023-05-24T05:59:16.017Z,4.30
2023-05-24T06:01:43.918Z,4.47
2023-05-24T06:04:11.000Z,5.70
2023-05-24T06:06:37.967Z,4.27
2023-05-24T06:09:04.840Z,4.30
2023-05-24T06:11:31.837Z,4.40
2023-05-24T06:13:58.727Z,4.70
2023-05-24T06:16:25.664Z,4.30
2023-05-24T06:19:04.798Z,3.77
2023-05-24T06:21:33.116Z,4.97
2023-05-24T06:24:02.532Z,5.93
2023-05-24T06:26:29.853Z,5.50
2023-05-24T06:28:56.676Z,4.37
2023-05-24T06:31:23.676Z,4.50
2023-05-24T06:34:02.630Z,6.10
2023-05-24T06:36:34.185Z,4.80
2023-05-24T06:39:01.391Z,5.27
2023-05-24T06:41:28.523Z,6.27
2023-05-24T06:43:55.398Z,4.20
2023-05-24T06:46:22.190Z,5.67
2023-05-24T06:48:49.114Z,4.50
2023-05-24T06:51:15.976Z,5.17
2023-05-24T06:53:42.810Z,4.10
2023-05-24T06:56:09.563Z,4.70
2023-05-24T06:58:36.750Z,5.37
2023-05-24T07:01:05.274Z,4.67
2023-05-24T07:03:32.489Z,4.47
2023-05-24T07:05:59.444Z,7.00
2023-05-24T07:08:26.405Z,4.50
2023-05-24T07:10:57.019Z,4.23
2023-05-24T07:13:23.775Z,3.90
2023-05-24T07:15:50.772Z,5.27
2023-05-24T07:18:17.536Z,4.90
2023-05-24T07:20:44.662Z,4.80
2023-05-24T07:23:12.143Z,5.40
2023-05-24T07:25:38.971Z,5.03
2023-05-24T07:28:05.945Z,4.10
2023-05-24T07:30:33.106Z,4.30
2023-05-24T07:33:01.472Z,3.93
2023-05-24T07:35:29.531Z,3.90
2023-05-24T07:37:56.499Z,3.90
2023-05-24T07:40:23.509Z,4.50
2023-05-24T07:42:50.434Z,7.07
2023-05-24T07:45:17.347Z,3.83
2023-05-24T07:47:44.236Z,4.60
2023-05-24T07:50:11.828Z,4.27
2023-05-24T07:52:41.715Z,4.90
2023-05-24T07:55:08.912Z,4.30
2023-05-24T07:57:35.941Z,5.37
2023-05-24T08:00:10.296Z,3.60
2023-05-24T08:02:38.028Z,4.70
2023-05-24T08:05:05.270Z,4.07
2023-05-24T08:07:32.081Z,5.70
2023-05-24T08:09:58.865Z,4.40
2023-05-24T08:12:26.170Z,3.80
2023-05-24T08:14:53.161Z,3.30
2023-05-24T08:17:20.043Z,5.30
2023-05-24T08:19:46.932Z,4.30
2023-05-24T08:22:13.816Z,4.70
2023-05-24T08:24:40.802Z,4.53
2023-05-24T08:27:08.662Z,4.27
2023-05-24T08:29:37.229Z,4.33
2023-05-24T08:32:04.497Z,4.17
2023-05-24T08:34:31.644Z,3.90
2023-05-24T08:36:58.570Z,5.10
2023-05-24T08:39:25.318Z,3.90
2023-05-24T08:42:07.883Z,5.10
2023-05-24T08:44:45.917Z,3.60
2023-05-24T08:47:14.105Z,4.27
2023-05-24T08:49:42.003Z,4.50
2023-05-24T08:52:11.324Z,3.10
2023-05-24T08:54:40.411Z,3.53
2023-05-24T08:57:07.655Z,4.57
2023-05-24T08:59:34.607Z,5.13
2023-05-24T09:02:04.658Z,4.10
2023-05-24T09:04:32.085Z,3.40
2023-05-24T09:06:59.611Z,3.90
2023-05-24T09:09:29.148Z,4.23
2023-05-24T09:11:59.345Z,3.83
2023-05-24T09:14:26.256Z,4.70
2023-05-24T09:16:53.641Z,3.30
2023-05-24T09:19:20.794Z,4.43
2023-05-24T09:21:49.817Z,4.20
2023-05-24T09:24:17.054Z,3.50
2023-05-24T09:26:43.817Z,4.83
2023-05-24T09:29:10.567Z,5.93
2023-05-24T09:31:39.579Z,3.60
2023-05-24T09:34:11.615Z,4.10
2023-05-24T09:36:44.986Z,3.40
2023-05-24T09:39:12.283Z,3.90
2023-05-24T09:41:39.602Z,4.17
2023-05-24T09:44:07.629Z,4.13
2023-05-24T09:46:38.530Z,6.33
2023-05-24T09:49:08.250Z,3.20
2023-05-24T09:51:38.800Z,4.40
2023-05-24T09:54:06.556Z,3.47
2023-05-24T09:56:34.800Z,4.33
2023-05-24T09:59:10.783Z,3.70
2023-05-24T10:01:37.879Z,3.70
2023-05-24T10:04:09.240Z,3.97
2023-05-24T10:06:38.568Z,4.20
2023-05-24T10:09:09.900Z,3.47
2023-05-24T10:11:37.462Z,5.23
2023-05-24T10:14:09.746Z,3.40
2023-05-24T10:16:39.661Z,4.10
2023-05-24T10:19:07.373Z,3.83
2023-05-24T10:21:38.866Z,3.37
2023-05-24T10:24:08.272Z,3.40
2023-05-24T10:26:38.786Z,3.60
2023-05-24T10:29:10.717Z,3.93
2023-05-24T10:31:41.016Z,3.70
2023-05-24T10:34:09.402Z,4.10
2023-05-24T10:36:37.123Z,3.20
2023-05-24T10:39:05.035Z,4.27
2023-05-24T10:41:40.611Z,4.90
2023-05-24T10:44:13.222Z,4.40
2023-05-24T10:47:08.868Z,3.53
2023-05-24T10:49:37.199Z,4.20
2023-05-24T10:52:10.870Z,3.83
2023-05-24T10:54:39.950Z,3.00
2023-05-24T10:57:09.787Z,3.70
2023-05-24T10:59:40.016Z,3.10
2023-05-24T11:02:16.294Z,4.33
2023-05-24T11:04:46.905Z,4.20
2023-05-24T11:07:19.395Z,4.10
2023-05-24T11:09:56.190Z,3.57
2023-05-24T11:12:23.492Z,3.97
2023-05-24T11:14:52.352Z,3.93
2023-05-24T11:17:23.959Z,4.00
2023-05-24T11:19:55.285Z,3.47
2023-05-24T11:22:24.335Z,4.33
2023-05-24T11:24:53.194Z,3.03
2023-05-24T11:27:20.269Z,3.77
2023-05-24T11:29:48.377Z,3.30
2023-05-24T11:32:20.977Z,3.63
2023-05-24T11:34:48.799Z,3.93
2023-05-24T11:37:18.026Z,3.47
2023-05-24T11:39:52.367Z,3.17
2023-05-24T11:42:19.651Z,4.67
2023-05-24T11:44:49.982Z,3.60
2023-05-24T11:47:16.767Z,3.60
2023-05-24T11:49:43.611Z,3.57
2023-05-24T11:52:10.621Z,3.57
2023-05-24T11:54:39.114Z,3.53
2023-05-24T11:57:06.370Z,3.30
2023-05-24T11:59:35.750Z,3.53
2023-05-24T12:02:05.590Z,3.37
2023-05-24T12:04:34.608Z,3.50
2023-05-24T12:07:02.277Z,3.37
2023-05-24T12:09:29.318Z,5.23
2023-05-24T12:11:58.455Z,4.13
2023-05-24T12:14:33.005Z,3.60
2023-05-24T12:17:00.949Z,5.07
2023-05-24T12:19:36.485Z,4.30
2023-05-24T12:22:08.023Z,4.07
2023-05-24T12:24:35.680Z,3.83
2023-05-24T12:27:07.374Z,3.90
2023-05-24T12:29:36.497Z,4.73
2023-05-24T12:32:04.026Z,3.20
2023-05-24T12:34:30.873Z,3.60
2023-05-24T12:36:57.976Z,3.70
2023-05-24T12:39:34.078Z,3.70
2023-05-24T12:42:02.225Z,3.57
2023-05-24T12:44:36.900Z,3.80
2023-05-24T12:47:06.646Z,3.93
2023-05-24T12:49:34.257Z,4.73
2023-05-24T12:52:04.303Z,4.20
2023-05-24T12:54:31.788Z,4.00
2023-05-24T12:57:03.394Z,4.50
2023-05-24T12:59:30.738Z,4.00
2023-05-24T13:01:58.161Z,4.03
2023-05-24T13:04:31.494Z,3.77
2023-05-24T13:06:58.327Z,4.60
2023-05-24T13:09:26.206Z,3.70
2023-05-24T13:11:54.255Z,3.80
2023-05-24T13:14:21.690Z,4.20
2023-05-24T13:16:48.666Z,4.23
2023-05-24T13:19:16.566Z,4.07
2023-05-24T13:21:43.974Z,5.07
2023-05-24T13:24:10.989Z,4.97
2023-05-24T13:26:38.771Z,5.43
2023-05-24T13:31:40.659Z,4.57
2023-05-24T13:34:09.179Z,6.10
2023-05-24T13:36:36.502Z,5.50
2023-05-24T13:39:14.289Z,5.10
2023-05-24T13:41:43.545Z,5.23
2023-05-24T13:44:10.887Z,4.57
2023-05-24T13:46:38.393Z,4.77
2023-05-24T13:49:05.891Z,5.40
2023-05-24T13:51:33.107Z,4.60
2023-05-24T13:54:00.189Z,5.63
2023-05-24T13:56:32.646Z,4.57
2023-05-24T13:59:03.725Z,4.03
2023-05-24T14:01:31.909Z,4.60
2023-05-24T14:03:59.959Z,5.20
2023-05-24T14:06:26.843Z,5.70
2023-05-24T14:08:53.867Z,4.23
2023-05-24T14:11:20.660Z,5.00
2023-05-24T14:16:19.108Z,4.93
2023-05-24T14:18:49.021Z,4.10
2023-05-24T14:21:16.333Z,4.60
2023-05-24T14:23:43.149Z,4.57
2023-05-24T14:26:09.966Z,4.77
2023-05-24T14:28:36.722Z,5.40
2023-05-24T14:31:03.729Z,4.27
2023-05-24T14:33:30.606Z,4.93
2023-05-24T14:35:57.376Z,4.60
2023-05-24T14:38:25.482Z,4.53
2023-05-24T14:40:52.381Z,4.23
2023-05-24T14:43:19.283Z,4.70
2023-05-24T14:45:46.741Z,5.93
2023-05-24T14:48:16.024Z,4.37
2023-05-24T14:50:43.312Z,4.80
2023-05-24T14:53:13.346Z,4.97
2023-05-24T14:55:42.694Z,5.30
2023-05-24T14:58:14.085Z,5.00
2023-05-24T15:00:42.609Z,5.20
2023-05-24T15:03:11.405Z,5.30
2023-05-24T15:05:39.722Z,4.90
2023-05-24T15:08:07.912Z,6.30
2023-05-24T15:10:34.779Z,5.40
2023-05-24T15:13:03.783Z,6.13
2023-05-24T15:15:30.798Z,4.60
2023-05-24T15:17:59.639Z,5.23
2023-05-24T15:20:26.785Z,4.80
2023-05-24T15:22:53.893Z,4.80
2023-05-24T15:25:21.089Z,4.70
2023-05-24T15:27:48.241Z,5.43
2023-05-24T15:30:17.199Z,5.13
2023-05-24T15:32:45.789Z,5.23
2023-05-24T15:35:12.903Z,5.50
2023-05-24T15:37:40.504Z,4.80
2023-05-24T15:40:10.052Z,4.27
2023-05-24T15:42:37.027Z,4.60
2023-05-24T15:45:04.206Z,4.80
2023-05-24T15:47:36.255Z,4.50
2023-05-24T15:50:03.252Z,5.03
2023-05-24T15:52:30.099Z,5.80
2023-05-24T15:54:56.943Z,6.20
2023-05-24T15:57:23.693Z,4.27
2023-05-24T15:59:50.702Z,5.23
2023-05-24T16:02:20.629Z,4.23
2023-05-24T16:04:48.190Z,3.97
2023-05-24T16:07:14.972Z,4.60
2023-05-24T16:09:41.848Z,4.10
2023-05-24T16:12:08.917Z,3.97
2023-05-24T16:14:35.746Z,4.47
2023-05-24T16:17:06.428Z,4.00
2023-05-24T16:19:33.574Z,4.87
2023-05-24T16:22:00.430Z,4.97
2023-05-24T16:24:28.956Z,3.30
2023-05-24T16:26:57.690Z,4.40
2023-05-24T16:29:24.744Z,4.20
2023-05-24T16:31:52.072Z,4.27
2023-05-24T16:34:19.118Z,6.23
2023-05-24T16:36:47.028Z,3.63
2023-05-24T16:39:13.972Z,4.97
2023-05-24T16:41:41.067Z,4.90
2023-05-24T16:44:07.865Z,5.57
2023-05-24T16:46:35.110Z,5.00
2023-05-24T16:49:03.351Z,5.63
2023-05-24T16:51:33.097Z,6.80
2023-05-24T16:53:59.928Z,5.03
2023-05-24T16:56:27.283Z,4.57
2023-05-24T16:58:54.101Z,4.73
2023-05-24T17:01:21.612Z,4.07
2023-05-24T17:03:48.602Z,4.43
2023-05-24T17:06:15.442Z,4.87
2023-05-24T17:08:42.636Z,6.40
2023-05-24T17:11:09.459Z,5.70
2023-05-24T17:13:36.558Z,5.87
2023-05-24T17:16:04.143Z,6.47
2023-05-24T17:18:31.145Z,6.27
2023-05-24T17:21:03.168Z,5.37
2023-05-24T17:23:32.252Z,6.03
2023-05-24T17:25:59.521Z,5.77
2023-05-24T17:28:30.019Z,6.10
2023-05-24T17:30:58.343Z,6.70
2023-05-24T17:33:26.725Z,5.30
2023-05-24T17:35:57.624Z,5.50
2023-05-24T17:38:25.310Z,5.83
2023-05-24T17:40:59.342Z,5.03
2023-05-24T17:43:32.769Z,6.40
2023-05-24T17:46:06.501Z,5.50
2023-05-24T17:48:36.114Z,5.40
2023-05-24T17:51:05.191Z,6.03
2023-05-24T17:53:34.524Z,5.37
2023-05-24T17:56:02.509Z,4.90
2023-05-24T17:58:35.678Z,5.80
2023-05-24T18:01:07.850Z,5.30
2023-05-24T18:03:38.493Z,4.97
2023-05-24T18:06:07.663Z,4.37
2023-05-24T18:08:38.854Z,4.10
2023-05-24T18:11:08.724Z,4.90
2023-05-24T18:13:37.242Z,5.07
2023-05-24T18:16:04.114Z,4.00
2023-05-24T18:18:31.037Z,4.60
2023-05-24T18:20:57.859Z,5.40
2023-05-24T18:23:24.698Z,4.27
2023-05-24T18:26:00.158Z,4.50
2023-05-24T18:28:27.790Z,4.53
2023-05-24T18:30:54.774Z,4.90
2023-05-24T18:33:21.598Z,4.43
2023-05-24T18:35:48.492Z,4.33
2023-05-24T18:38:15.429Z,4.07
2023-05-24T18:40:42.218Z,3.60
2023-05-24T18:43:09.007Z,5.00
2023-05-24T18:45:35.833Z,6.67
2023-05-24T18:48:02.689Z,4.50
2023-05-24T18:50:29.564Z,5.30
2023-05-24T18:52:56.458Z,4.73
2023-05-24T18:55:23.203Z,4.40
2023-05-24T18:57:50.263Z,4.50
2023-05-24T19:00:19.505Z,4.60
2023-05-24T19:02:46.506Z,4.20
2023-05-24T19:05:13.400Z,4.47
2023-05-24T19:07:40.452Z,4.70
2023-05-24T19:10:08.248Z,4.10
2023-05-24T19:12:35.078Z,4.33
2023-05-24T19:15:02.876Z,4.23
2023-05-24T19:17:29.816Z,5.67
2023-05-24T19:19:56.668Z,6.47
2023-05-24T19:22:23.486Z,4.60
2023-05-24T19:24:50.280Z,4.17
2023-05-24T19:27:17.263Z,4.20
2023-05-24T19:29:44.015Z,4.60
2023-05-24T19:32:11.748Z,4.33
2023-05-24T19:34:42.381Z,4.10
2023-05-24T19:37:09.756Z,4.63
2023-05-24T19:39:37.344Z,4.30
2023-05-24T19:42:04.523Z,4.40
2023-05-24T19:44:31.382Z,5.43
2023-05-24T19:46:58.195Z,4.20
2023-05-24T19:49:25.237Z,4.60
2023-05-24T19:51:52.469Z,4.57
2023-05-24T19:54:19.436Z,6.07
2023-05-24T19:56:50.222Z,4.43
2023-05-24T19:59:18.235Z,4.73
2023-05-24T20:01:45.678Z,5.07
2023-05-24T20:04:13.076Z,4.03
2023-05-24T20:06:40.762Z,4.80
2023-05-24T20:09:07.696Z,4.60
2023-05-24T20:11:34.986Z,4.40
2023-05-24T20:14:02.323Z,4.87
2023-05-24T20:16:30.925Z,5.57
2023-05-24T20:18:57.895Z,6.00
2023-05-24T20:21:24.777Z,5.67
2023-05-24T20:23:57.779Z,4.97
2023-05-24T20:26:26.000Z,5.60
2023-05-24T20:28:52.979Z,6.70
2023-05-24T20:31:20.042Z,4.20
2023-05-24T20:33:46.995Z,7.03
2023-05-24T20:36:15.288Z,4.53
2023-05-24T20:38:42.415Z,4.63
2023-05-24T20:41:09.430Z,4.00
2023-05-24T20:43:36.342Z,5.90
2023-05-24T20:46:03.252Z,5.10
2023-05-24T20:48:30.091Z,4.63
2023-05-24T20:50:57.518Z,4.27
2023-05-24T20:53:24.539Z,5.00
2023-05-24T20:55:51.554Z,4.67
2023-05-24T20:58:18.433Z,5.20
2023-05-24T21:00:45.884Z,4.70
2023-05-24T21:03:13.204Z,4.70
2023-05-24T21:05:40.553Z,4.70
2023-05-24T21:08:07.507Z,5.00
2023-05-24T21:10:34.356Z,5.93
2023-05-24T21:13:01.212Z,4.30
2023-05-24T21:15:28.048Z,4.97
2023-05-24T21:17:55.051Z,5.40
2023-05-24T21:20:22.116Z,5.53
2023-05-24T21:22:49.226Z,4.57
2023-05-24T21:25:16.471Z,5.87
2023-05-24T21:27:43.277Z,5.53
2023-05-24T21:30:10.435Z,5.07
2023-05-24T21:32:37.445Z,5.17
2023-05-24T21:35:04.582Z,6.30
2023-05-24T21:37:31.417Z,4.60
2023-05-24T21:39:58.287Z,5.63
2023-05-24T21:42:25.063Z,5.37
2023-05-24T21:44:51.822Z,5.80
2023-05-24T21:47:18.638Z,4.97
2023-05-24T21:49:45.501Z,4.73
2023-05-24T21:52:12.281Z,6.70
2023-05-24T21:54:39.128Z,5.30
2023-05-24T21:57:07.243Z,4.70
2023-05-24T21:59:34.297Z,5.07
2023-05-24T22:02:01.405Z,4.70
2023-05-24T22:04:28.362Z,5.60
2023-05-24T22:06:55.223Z,5.07
2023-05-24T22:09:22.214Z,5.50
2023-05-24T22:11:49.269Z,5.40
2023-05-24T22:14:16.239Z,6.17
2023-05-24T22:16:43.250Z,4.87
2023-05-24T22:19:16.306Z,5.97
2023-05-24T22:21:43.582Z,5.30
2023-05-24T22:24:10.832Z,7.13
2023-05-24T22:26:38.276Z,5.10
2023-05-24T22:29:05.132Z,5.37
2023-05-24T22:31:34.865Z,4.77
2023-05-24T22:34:02.633Z,5.00
2023-05-24T22:36:33.363Z,5.20
2023-05-24T22:39:01.256Z,5.07
2023-05-24T22:41:28.237Z,5.53
2023-05-24T22:43:56.778Z,6.23
2023-05-24T22:46:23.817Z,5.00
2023-05-24T22:48:58.795Z,4.30
2023-05-24T22:51:26.298Z,4.70
2023-05-24T22:53:53.101Z,5.33
2023-05-24T22:56:20.103Z,5.03
2023-05-24T22:58:46.927Z,6.33
2023-05-24T23:01:15.137Z,5.87
2023-05-24T23:03:42.105Z,4.80
2023-05-24T23:06:12.102Z,5.67
2023-05-24T23:08:39.502Z,6.37
2023-05-24T23:11:13.275Z,5.10
2023-05-24T23:13:42.407Z,4.50
2023-05-24T23:16:09.495Z,4.73
2023-05-24T23:18:37.935Z,4.67
2023-05-24T23:21:04.979Z,4.93
2023-05-24T23:23:31.841Z,6.27
2023-05-24T23:25:58.705Z,4.90
2023-05-24T23:28:25.570Z,4.80
2023-05-24T23:30:53.561Z,5.60
2023-05-24T23:33:20.464Z,5.20
2023-05-24T23:35:47.334Z,5.97
2023-05-24T23:38:14.818Z,6.17
2023-05-24T23:40:41.945Z,6.40
2023-05-24T23:43:08.994Z,9.50
2023-05-24T23:45:35.839Z,5.90
2023-05-24T23:48:02.754Z,7.27
2023-05-24T23:50:33.047Z,6.63
2023-05-24T23:53:05.024Z,5.73
2023-05-24T23:55:32.001Z,7.13
2023-05-24T23:58:00.333Z,6.93
